Time;durP1;ratioP1;P1;durP2;ratioP2;P2;SDS_P1;SDS_P2;PMS_P1;PMS_P2;Temp;Humidity;BMP_temperature;BMP_pressure;BME280_temperature;BME280_humidity;BME280_pressure;Samples;Min_cycle;Max_cycle;Signal;HPM_P1;HPM_P2
2022/11/10 00:00:52;;;;;;;45.73;25.75;;;;;;;8.95;87.74;99102.69;1746772;81;21044;-43
2022/11/10 00:03:17;;;;;;;44.60;26.20;;;;;;;8.96;87.84;99109.64;1746842;81;21472;-42
2022/11/10 00:05:43;;;;;;;48.92;25.88;;;;;;;8.99;87.51;99106.88;1746823;81;21414;-44
2022/11/10 00:08:11;;;;;;;51.37;26.50;;;;;;;8.98;87.64;99107.31;1746794;81;20980;-44
2022/11/10 00:10:55;;;;;;;45.90;25.25;;;;;;;8.98;87.64;99103.38;1746774;81;20991;-44
2022/11/10 00:13:06;;;;;;;53.10;27.00;;;;;;;8.99;87.80;99108.19;1745224;81;20968;-43
2022/11/10 00:18:16;;;;;;;50.20;25.92;;;;;;;9.02;87.81;99116.74;1754722;81;20987;-45
2022/11/10 00:20:41;;;;;;;53.25;26.85;;;;;;;9.03;87.71;99111.02;1761093;81;20991;-48
2022/11/10 00:23:07;;;;;;;53.50;27.10;;;;;;;9.03;87.60;99109.23;1761112;81;20987;-46
2022/11/10 00:25:33;;;;;;;45.35;24.77;;;;;;;9.07;87.58;99109.09;1761098;81;20983;-46
2022/11/10 00:27:59;;;;;;;45.98;25.32;;;;;;;9.01;87.72;99107.16;1761225;81;21519;-45
2022/11/10 00:30:26;;;;;;;44.85;25.12;;;;;;;9.06;87.77;99108.69;1761376;81;21429;-45
2022/11/10 00:32:51;;;;;;;49.80;27.02;;;;;;;9.04;87.70;99107.48;1761413;81;20975;-43
2022/11/10 00:35:17;;;;;;;48.00;26.07;;;;;;;9.07;87.70;99107.30;1761316;81;20990;-43
2022/11/10 00:37:43;;;;;;;43.80;24.67;;;;;;;9.09;87.52;99106.76;1761299;81;20963;-45
2022/11/10 00:40:09;;;;;;;50.38;26.12;;;;;;;9.11;87.46;99108.83;1761312;81;20979;-45
2022/11/10 00:42:35;;;;;;;47.03;26.07;;;;;;;9.14;87.49;99109.16;1761579;81;20990;-43
2022/11/10 00:45:02;;;;;;;49.00;26.50;;;;;;;9.16;87.30;99101.58;1761336;81;21229;-44
2022/11/10 00:47:28;;;;;;;46.60;24.27;;;;;;;9.17;86.96;99103.76;1761343;81;20987;-45
2022/11/10 00:49:53;;;;;;;45.17;25.32;;;;;;;9.18;87.00;99103.65;1761300;81;20998;-44
2022/11/10 00:52:19;;;;;;;47.50;24.57;;;;;;;9.23;86.93;99096.86;1761382;81;21022;-46
2022/11/10 00:54:45;;;;;;;45.67;24.05;;;;;;;9.21;86.99;99103.97;1761281;81;20990;-44
2022/11/10 00:57:11;;;;;;;50.92;25.90;;;;;;;9.25;86.87;99111.22;1761273;81;20967;-44
2022/11/10 00:59:37;;;;;;;46.18;26.42;;;;;;;9.26;86.78;99119.02;1761228;81;21027;-43
2022/11/10 01:02:02;;;;;;;47.05;24.60;;;;;;;9.26;86.64;99112.89;1761235;81;20955;-43
2022/11/10 01:04:28;;;;;;;44.08;24.72;;;;;;;9.28;86.67;99108.41;1761263;81;20983;-44
2022/11/10 01:06:54;;;;;;;46.55;24.32;;;;;;;9.27;86.54;99109.36;1761230;81;20994;-46
2022/11/10 01:09:19;;;;;;;48.52;24.50;;;;;;;9.31;86.48;99109.57;1761265;81;21023;-45
2022/11/10 01:11:45;;;;;;;48.08;25.08;;;;;;;9.30;86.50;99107.42;1761260;81;20986;-43
2022/11/10 01:14:11;;;;;;;52.23;26.68;;;;;;;9.30;86.45;99106.11;1761342;81;21546;-43
2022/11/10 01:16:37;;;;;;;50.38;24.50;;;;;;;9.30;86.38;99098.23;1761322;81;21539;-43
2022/11/10 01:19:03;;;;;;;46.50;25.90;;;;;;;9.29;86.43;99106.19;1761240;80;21532;-45
2022/11/10 01:21:29;;;;;;;46.58;24.90;;;;;;;9.27;86.65;99105.42;1761270;81;21022;-46
2022/11/10 01:23:55;;;;;;;45.75;24.10;;;;;;;9.28;86.71;99103.16;1761274;81;21817;-43
2022/11/10 01:26:22;;;;;;;54.90;25.75;;;;;;;9.29;86.57;99110.13;1760362;81;21569;-44
2022/11/10 01:28:48;;;;;;;48.58;25.70;;;;;;;9.33;86.37;99110.33;1761516;81;21006;-43
2022/11/10 01:31:18;;;;;;;44.30;25.45;;;;;;;9.30;86.34;99115.30;1761211;81;20971;-43
2022/11/10 01:33:45;;;;;;;45.40;24.65;;;;;;;9.33;86.26;99116.45;1761221;81;21036;-44
2022/11/10 01:36:12;;;;;;;44.77;23.52;;;;;;;9.35;86.22;99121.59;1761203;81;20975;-44
2022/11/10 01:38:40;;;;;;;49.10;24.60;;;;;;;9.37;86.19;99119.29;1761292;81;20995;-44
2022/11/10 01:41:10;;;;;;;50.30;24.35;;;;;;;9.36;86.14;99124.61;1761136;81;20990;-43
2022/11/10 01:43:36;;;;;;;47.10;24.50;;;;;;;9.34;86.07;99114.66;1761178;81;21488;-44
2022/11/10 01:46:06;;;;;;;45.45;23.75;;;;;;;9.34;85.97;99118.60;1761173;81;20991;-44
2022/11/10 01:48:52;;;;;;;50.10;24.82;;;;;;;9.36;85.99;99127.23;1761121;81;21034;-43
2022/11/10 01:51:26;;;;;;;51.58;25.37;;;;;;;9.36;85.96;99118.89;1761146;81;20974;-43
2022/11/10 01:54:00;;;;;;;45.73;24.55;;;;;;;9.33;86.08;99125.64;1761265;81;21329;-44
2022/11/10 01:56:29;;;;;;;45.50;23.18;;;;;;;9.33;86.17;99116.89;1761337;81;20979;-45
2022/11/10 01:59:00;;;;;;;47.53;24.15;;;;;;;9.36;86.04;99115.42;1761350;81;20987;-44
2022/11/10 02:01:26;;;;;;;48.20;25.52;;;;;;;9.36;86.06;99121.52;1761159;81;21003;-43
2022/11/10 02:03:59;;;;;;;41.92;23.98;;;;;;;9.38;85.93;99125.37;1761078;81;20987;-44
2022/11/10 02:06:28;;;;;;;45.83;25.10;;;;;;;9.38;85.90;99125.37;1761197;81;20994;-44
2022/11/10 02:08:57;;;;;;;50.85;25.05;;;;;;;9.38;85.81;99122.27;1761208;81;20990;-43
2022/11/10 02:11:23;;;;;;;47.17;24.77;;;;;;;9.39;86.05;99125.77;1761298;81;21473;-43
2022/11/10 02:13:49;;;;;;;45.17;23.45;;;;;;;9.40;85.78;99123.52;1761119;81;21038;-43
2022/11/10 02:16:15;;;;;;;48.00;25.08;;;;;;;9.40;85.75;99133.56;1743898;81;21006;-44
2022/11/10 02:18:41;;;;;;;45.30;22.60;;;;;;;9.41;85.63;99148.84;1743687;81;20987;-45
2022/11/10 02:21:08;;;;;;;42.33;24.12;;;;;;;9.42;85.57;99154.45;1761225;81;20986;-46
2022/11/10 02:23:40;;;;;;;42.65;23.60;;;;;;;9.42;85.55;99157.08;1761269;81;21478;-45
2022/11/10 02:26:06;;;;;;;51.40;23.38;;;;;;;9.39;85.67;99156.80;1761194;81;21036;-45
2022/11/10 02:28:35;;;;;;;50.33;24.65;;;;;;;9.39;85.61;99156.80;1761128;81;21018;-43
2022/11/10 02:31:02;;;;;;;42.93;24.15;;;;;;;9.40;85.57;99160.26;1761050;81;21050;-46
2022/11/10 02:33:29;;;;;;;47.25;24.43;;;;;;;9.39;85.70;99167.30;1761204;81;21054;-47
2022/11/10 02:35:55;;;;;;;45.70;23.42;;;;;;;9.39;85.66;99165.98;1761496;81;20991;-45
2022/11/10 02:38:21;;;;;;;50.30;23.70;;;;;;;9.38;85.57;99170.83;1761224;81;21495;-44
2022/11/10 02:40:50;;;;;;;42.15;23.52;;;;;;;9.38;85.58;99168.68;1761209;81;21394;-45
2022/11/10 02:43:17;;;;;;;48.52;24.05;;;;;;;9.38;85.72;99170.83;1761146;81;20963;-44
2022/11/10 02:45:44;;;;;;;48.52;24.27;;;;;;;9.37;85.82;99172.25;1761025;81;20994;-46
2022/11/10 02:48:12;;;;;;;44.42;23.45;;;;;;;9.39;85.70;99174.33;1761067;81;21054;-44
2022/11/10 02:50:38;;;;;;;41.77;23.38;;;;;;;9.39;85.69;99180.41;1761125;81;20998;-46
2022/11/10 02:53:05;;;;;;;41.40;22.90;;;;;;;9.37;85.77;99177.50;1761116;80;21567;-45
2022/11/10 02:55:31;;;;;;;41.58;23.65;;;;;;;9.38;85.74;99173.92;1761108;80;21637;-44
2022/11/10 02:57:57;;;;;;;40.67;23.12;;;;;;;9.39;85.82;99173.85;1761065;81;20990;-47
2022/11/10 03:00:22;;;;;;;43.45;22.77;;;;;;;9.38;85.83;99180.48;1761095;81;21026;-44
2022/11/10 03:02:56;;;;;;;45.48;24.27;;;;;;;9.39;85.99;99183.52;1761103;81;20999;-44
2022/11/10 03:05:22;;;;;;;47.80;24.85;;;;;;;9.38;86.15;99177.39;1761065;80;21041;-43
2022/11/10 03:08:00;;;;;;;43.15;24.20;;;;;;;9.38;85.96;99176.08;1761124;80;21038;-43
2022/11/10 03:10:27;;;;;;;42.03;24.07;;;;;;;9.36;86.09;99181.88;1761066;81;21038;-45
2022/11/10 03:12:57;;;;;;;;;;;;;;;9.39;86.00;99180.89;1763808;80;20991;-43
2022/11/10 03:15:24;;;;;;;47.03;23.32;;;;;;;9.38;86.37;99178.70;1761082;81;20112;-44
2022/11/10 03:17:50;;;;;;;49.23;24.10;;;;;;;9.40;86.42;99186.06;1760967;81;20986;-44
2022/11/10 03:20:17;;;;;;;45.33;23.73;;;;;;;9.40;86.40;99186.50;1746768;81;21506;-43
2022/11/10 03:22:43;;;;;;;40.83;22.58;;;;;;;9.39;86.56;99188.76;1746808;82;21485;-43
2022/11/10 03:25:10;;;;;;;48.00;24.70;;;;;;;9.37;86.60;99191.94;1746560;81;20995;-45
2022/11/10 03:27:36;;;;;;;50.65;25.17;;;;;;;9.37;86.48;99195.39;1746981;81;20964;-45
2022/11/10 03:30:03;;;;;;;41.40;22.45;;;;;;;9.36;87.00;99202.03;1746667;81;21500;-44
2022/11/10 03:32:29;;;;;;;42.70;24.07;;;;;;;9.36;87.23;99204.66;1746815;81;20998;-43
2022/11/10 03:34:55;;;;;;;44.50;22.98;;;;;;;9.36;87.02;99204.66;1746671;81;20972;-45
2022/11/10 03:37:20;;;;;;;47.00;24.25;;;;;;;9.37;86.87;99210.30;1746693;81;21039;-43
2022/11/10 03:39:46;;;;;;;42.85;23.10;;;;;;;9.37;87.00;99210.30;1746667;81;20987;-44
2022/11/10 03:42:12;;;;;;;43.25;22.67;;;;;;;9.38;86.95;99206.73;1746766;81;21501;-45
2022/11/10 03:44:38;;;;;;;47.53;23.57;;;;;;;9.36;87.55;99206.81;1746727;81;21517;-45
2022/11/10 03:47:03;;;;;;;43.15;23.15;;;;;;;9.36;87.64;99212.05;1746744;81;21034;-43
2022/11/10 03:49:30;;;;;;;39.53;22.50;;;;;;;9.38;88.03;99211.98;1746854;81;20992;-43
2022/11/10 03:51:56;;;;;;;39.78;23.32;;;;;;;9.43;87.82;99211.28;1746637;82;21023;-46
2022/11/10 03:54:22;;;;;;;41.02;23.05;;;;;;;9.44;87.86;99212.12;1746622;82;21004;-44
2022/11/10 03:56:48;;;;;;;44.15;23.32;;;;;;;9.46;87.72;99216.83;1746665;81;20995;-44
2022/11/10 03:59:13;;;;;;;42.70;23.00;;;;;;;9.45;88.38;99223.02;1746637;82;21038;-44
2022/11/10 04:01:39;;;;;;;41.92;23.45;;;;;;;9.43;88.53;99224.88;1746673;81;20995;-43
2022/11/10 04:08:57;;;;;;;43.50;23.80;;;;;;;9.41;88.47;99219.70;1746699;81;20988;-43
2022/11/10 04:09:16;;;;;;;42.83;23.00;;;;;;;9.38;89.45;99228.56;1746653;82;20141;-47
2022/11/10 04:17:10;;;;;;;45.90;23.70;;;;;;;9.36;90.47;99226.96;1746737;82;20967;-46
2022/11/10 04:19:35;;;;;;;41.30;23.32;;;;;;;9.37;89.96;99226.05;1754219;80;21054;-46
2022/11/10 04:22:01;;;;;;;38.35;21.68;;;;;;;9.39;90.21;99225.03;1759387;81;20998;-44
2022/11/10 04:24:27;;;;;;;40.75;22.00;;;;;;;9.42;91.17;99230.57;1759433;81;21409;-44
2022/11/10 04:26:53;;;;;;;39.98;23.05;;;;;;;9.41;91.36;99236.77;1759463;80;20991;-45
2022/11/10 04:29:19;;;;;;;44.15;23.62;;;;;;;9.38;92.66;99235.60;1727046;83;21894;-45
2022/11/10 04:31:45;;;;;;;45.33;22.90;;;;;;;9.35;93.32;99237.94;1765531;80;21558;-46
2022/11/10 04:34:13;;;;;;;43.05;22.98;;;;;;;9.38;92.68;99236.91;1765343;80;20955;-44
2022/11/10 04:36:41;;;;;;;44.27;23.15;;;;;;;9.39;93.28;99239.94;1765341;80;20994;-45
2022/11/10 04:39:09;;;;;;;52.73;23.87;;;;;;;9.41;93.06;99242.86;1737408;82;21066;-49
2022/11/10 04:41:35;;;;;;;45.80;23.90;;;;;;;9.44;92.32;99244.49;1737518;82;21061;-45
2022/11/10 04:44:01;;;;;;;45.17;23.87;;;;;;;9.44;93.39;99248.88;1737386;82;20986;-46
2022/11/10 04:46:37;;;;;;;45.07;22.83;;;;;;;9.43;93.16;99253.75;1737589;82;20978;-45
2022/11/10 04:49:04;;;;;;;44.38;23.95;;;;;;;9.43;93.56;99250.66;1737412;82;21046;-46
2022/11/10 04:51:33;;;;;;;;;;;;;;;9.44;93.21;99254.99;1740042;82;21013;-46
2022/11/10 04:54:00;;;;;;;45.17;23.27;;;;;;;9.43;94.09;99258.53;1737393;82;20108;-46
2022/11/10 04:56:27;;;;;;;47.45;23.75;;;;;;;9.44;93.74;99251.05;1737563;82;21503;-45
2022/11/10 04:58:53;;;;;;;41.58;23.20;;;;;;;9.44;94.25;99258.93;1737483;82;20975;-44
2022/11/10 05:01:23;;;;;;;48.75;23.90;;;;;;;9.43;94.22;99259.00;1737400;82;21061;-44
2022/11/10 05:03:50;;;;;;;46.33;24.00;;;;;;;9.41;94.32;99252.52;1737407;82;21013;-43
2022/11/10 05:06:17;;;;;;;48.87;23.15;;;;;;;9.44;94.18;99256.74;1737505;82;21050;-44
2022/11/10 05:08:44;;;;;;;43.68;23.05;;;;;;;9.45;94.53;99257.14;1737657;82;21010;-44
2022/11/10 05:11:11;;;;;;;38.65;22.62;;;;;;;9.46;93.96;99254.45;1737522;82;21002;-42
2022/11/10 05:13:37;;;;;;;42.58;23.45;;;;;;;9.45;93.87;99257.98;1737507;82;21013;-45
2022/11/10 05:16:04;;;;;;;41.90;22.85;;;;;;;9.42;94.86;99255.51;1737590;82;21436;-44
2022/11/10 05:18:30;;;;;;;41.60;23.42;;;;;;;9.41;94.75;99264.33;1736908;82;21050;-44
2022/11/10 05:20:56;;;;;;;44.93;22.15;;;;;;;9.41;94.99;99274.35;1721314;82;21067;-43
2022/11/10 05:23:37;;;;;;;44.58;22.58;;;;;;;9.39;95.11;99272.27;1721248;83;21548;-44
2022/11/10 05:26:13;;;;;;;46.77;23.02;;;;;;;9.41;95.40;99270.89;1721192;83;21435;-43
2022/11/10 05:28:42;;;;;;;47.43;23.42;;;;;;;9.40;96.22;99277.92;1721275;83;21480;-42
2022/11/10 05:31:08;;;;;;;43.98;23.22;;;;;;;9.39;96.01;99283.24;1721151;83;21497;-44
2022/11/10 05:33:36;;;;;;;42.70;23.93;;;;;;;9.38;95.88;99287.63;1721423;83;21555;-45
2022/11/10 05:36:04;;;;;;;42.23;21.60;;;;;;;9.36;96.31;99286.85;1721257;83;21011;-44
2022/11/10 05:38:30;;;;;;;42.38;22.93;;;;;;;9.35;96.50;99294.80;1721148;83;20983;-43
2022/11/10 05:40:56;;;;;;;44.60;23.75;;;;;;;9.36;96.77;99295.20;1721203;83;21054;-44
2022/11/10 05:43:22;;;;;;;50.30;23.87;;;;;;;9.36;96.39;99292.58;1721122;83;20995;-45
2022/11/10 05:45:48;;;;;;;40.25;22.10;;;;;;;9.42;96.41;99300.13;1721204;83;21063;-44
2022/11/10 05:48:14;;;;;;;41.55;23.00;;;;;;;9.41;96.61;99299.76;1721205;83;21517;-45
2022/11/10 05:50:42;;;;;;;44.53;23.75;;;;;;;9.37;97.02;99309.56;1721137;83;21042;-47
2022/11/10 05:53:08;;;;;;;45.50;23.55;;;;;;;9.38;97.22;99311.72;1692584;83;21055;-46
2022/11/10 05:55:34;;;;;;;42.33;22.90;;;;;;;9.35;97.54;99312.73;1721299;82;21480;-45
2022/11/10 05:57:59;;;;;;;43.48;23.73;;;;;;;9.37;97.04;99319.22;1721184;82;21003;-46
2022/11/10 06:00:28;;;;;;;44.35;22.93;;;;;;;9.39;97.25;99326.08;1721264;83;21003;-44
2022/11/10 06:03:12;;;;;;;40.78;23.22;;;;;;;9.39;97.85;99331.33;1721198;83;21527;-47
2022/11/10 06:05:38;;;;;;;41.35;22.70;;;;;;;9.40;97.57;99335.66;1684404;83;21030;-48
2022/11/10 06:08:05;;;;;;;43.02;23.15;;;;;;;9.39;97.76;99335.27;1721264;82;21066;-48
2022/11/10 06:10:33;;;;;;;45.65;23.62;;;;;;;9.45;96.98;99341.14;1721245;82;21527;-45
2022/11/10 06:12:59;;;;;;;;;;;;;;;9.49;97.78;99343.98;1723739;83;21072;-46
2022/11/10 06:15:25;;;;;;;44.15;22.75;;;;;;;9.49;97.43;99346.14;1721194;83;20113;-45
2022/11/10 06:17:52;;;;;;;44.50;22.93;;;;;;;9.52;97.27;99351.25;1721271;83;20984;-46
2022/11/10 06:20:19;;;;;;;43.13;22.05;;;;;;;9.52;97.56;99350.41;1724823;83;21015;-45
2022/11/10 06:22:58;;;;;;;42.00;20.37;;;;;;;9.52;97.53;99356.50;1726798;83;21007;-48
2022/11/10 06:25:24;;;;;;;39.55;21.85;;;;;;;9.53;97.35;99363.91;1726609;83;21010;-46
2022/11/10 06:27:50;;;;;;;43.60;22.35;;;;;;;9.55;97.77;99359.42;1726583;82;21003;-46
2022/11/10 06:30:16;;;;;;;38.13;22.40;;;;;;;9.59;97.59;99360.52;1726594;82;21151;-45
2022/11/10 06:32:43;;;;;;;39.18;22.05;;;;;;;9.58;98.01;99364.53;1726478;83;21481;-47
2022/11/10 06:35:10;;;;;;;45.23;23.50;;;;;;;9.56;98.42;99371.16;1726641;83;21058;-44
2022/11/10 06:37:37;;;;;;;39.20;22.25;;;;;;;9.57;98.54;99370.25;1726587;82;20990;-47
2022/11/10 06:40:07;;;;;;;35.85;20.75;;;;;;;9.59;98.85;99375.43;1726497;83;21078;-45
2022/11/10 06:42:34;;;;;;;43.00;22.45;;;;;;;9.61;98.72;99379.67;1725499;83;21010;-46
2022/11/10 06:45:00;;;;;;;37.48;21.33;;;;;;;9.64;98.71;99387.00;1726725;82;21452;-46
2022/11/10 06:47:26;;;;;;;38.02;21.12;;;;;;;9.63;98.96;99387.95;1726607;82;21025;-45
2022/11/10 06:49:52;;;;;;;37.75;20.30;;;;;;;9.64;98.38;99398.81;1726558;83;21006;-44
2022/11/10 06:52:18;;;;;;;37.38;20.72;;;;;;;9.63;98.52;99403.70;1726461;82;21429;-45
2022/11/10 06:54:44;;;;;;;35.50;19.82;;;;;;;9.54;100.00;99396.65;1725979;83;21472;-46
2022/11/10 06:57:10;;;;;;;41.92;21.23;;;;;;;9.65;98.68;99409.25;1726244;82;21535;-44
2022/11/10 06:59:36;;;;;;;35.95;20.65;;;;;;;9.59;98.83;99415.66;1725743;83;20983;-44
2022/11/10 07:02:02;;;;;;;35.88;19.65;;;;;;;9.56;99.99;99414.48;1726544;82;21014;-44
2022/11/10 07:04:28;;;;;;;39.38;20.72;;;;;;;9.57;100.00;99420.61;1726554;82;21009;-46
2022/11/10 07:06:53;;;;;;;35.43;20.62;;;;;;;9.60;99.67;99418.68;1763283;80;21023;-44
2022/11/10 07:09:19;;;;;;;34.92;19.70;;;;;;;9.60;99.77;99425.24;1768322;80;20983;-48
2022/11/10 07:11:45;;;;;;;36.30;20.72;;;;;;;9.62;100.00;99430.39;1755522;80;20956;-43
2022/11/10 07:14:11;;;;;;;37.83;19.80;;;;;;;9.66;100.00;99436.34;1771396;80;20949;-45
2022/11/10 07:16:36;;;;;;;34.90;20.65;;;;;;;9.63;100.00;99437.83;1767333;80;21622;-45
2022/11/10 07:19:02;;;;;;;35.85;20.85;;;;;;;9.66;99.64;99433.72;1769111;80;21449;-44
2022/11/10 07:21:28;;;;;;;37.45;19.45;;;;;;;9.62;100.00;99442.20;1764823;80;21416;-44
2022/11/10 07:23:54;;;;;;;38.50;19.75;;;;;;;9.65;100.00;99442.54;1771572;81;20951;-47
2022/11/10 07:26:19;;;;;;;36.38;18.90;;;;;;;9.69;100.00;99450.64;1764989;81;21031;-47
2022/11/10 07:28:45;;;;;;;34.38;19.12;;;;;;;9.73;99.79;99453.06;1770547;80;20998;-43
2022/11/10 07:31:11;;;;;;;32.35;18.00;;;;;;;9.76;100.00;99464.70;1761560;80;20960;-44
2022/11/10 07:33:37;;;;;;;30.30;18.00;;;;;;;9.79;99.71;99459.78;1764552;81;21445;-44
2022/11/10 07:36:04;;;;;;;35.92;19.27;;;;;;;9.80;99.99;99453.59;1765656;81;20976;-45
2022/11/10 07:38:30;;;;;;;36.60;19.30;;;;;;;9.82;99.83;99456.14;1765856;81;20964;-45
2022/11/10 07:40:56;;;;;;;34.15;16.97;;;;;;;9.83;100.00;99462.64;1765671;81;22193;-44
2022/11/10 07:43:24;;;;;;;31.90;17.15;;;;;;;9.86;99.91;99465.13;1767322;81;21460;-44
2022/11/10 07:45:52;;;;;;;34.40;19.17;;;;;;;9.86;100.00;99462.50;1765656;81;21446;-44
2022/11/10 07:48:18;;;;;;;36.90;17.57;;;;;;;9.89;100.00;99466.73;1765758;81;21612;-43
2022/11/10 07:50:45;;;;;;;31.68;17.40;;;;;;;9.94;100.00;99476.08;1764687;81;21094;-47
2022/11/10 07:53:18;;;;;;;31.60;17.40;;;;;;;10.00;100.00;99477.55;1764547;81;21110;-46
2022/11/10 07:55:45;;;;;;;32.00;17.52;;;;;;;10.02;100.00;99481.42;1762798;80;20967;-39
2022/11/10 07:58:13;;;;;;;37.75;18.35;;;;;;;10.07;100.00;99478.11;1772067;80;21138;-40
2022/11/10 08:00:40;;;;;;;33.02;16.90;;;;;;;10.10;100.00;99484.05;1760848;81;21051;-45
2022/11/10 08:03:16;;;;;;;34.58;16.37;;;;;;;10.09;100.00;99497.27;1763774;81;20995;-44
2022/11/10 08:05:43;;;;;;;28.05;17.17;;;;;;;10.09;100.00;99492.85;1762218;81;21047;-44
2022/11/10 08:08:09;;;;;;;33.73;16.85;;;;;;;10.12;100.00;99501.91;1764510;81;20975;-44
2022/11/10 08:10:36;;;;;;;35.03;17.32;;;;;;;10.15;100.00;99502.20;1765147;81;21537;-44
2022/11/10 08:13:05;;;;;;;28.32;15.55;;;;;;;10.13;100.00;99499.68;1761769;81;20972;-45
2022/11/10 08:15:33;;;;;;;30.90;16.17;;;;;;;10.12;100.00;99504.53;1761845;81;21428;-43
2022/11/10 08:18:01;;;;;;;29.10;15.60;;;;;;;10.18;100.00;99504.69;1759980;81;20960;-42
2022/11/10 08:20:28;;;;;;;36.40;15.90;;;;;;;10.18;100.00;99505.53;1760737;80;20999;-44
2022/11/10 08:23:00;;;;;;;34.15;16.60;;;;;;;10.22;100.00;99519.37;1772362;80;20948;-44
2022/11/10 08:25:28;;;;;;;28.52;15.95;;;;;;;10.30;100.00;99522.95;1768375;80;21007;-43
2022/11/10 08:28:03;;;;;;;30.30;15.28;;;;;;;10.35;100.00;99531.46;1758382;80;20956;-45
2022/11/10 08:30:30;;;;;;;28.35;15.65;;;;;;;10.33;100.00;99530.25;1762173;80;20952;-45
2022/11/10 08:32:58;;;;;;;26.97;16.03;;;;;;;10.38;100.00;99532.62;1780100;80;20975;-43
2022/11/10 08:35:27;;;;;;;32.03;16.37;;;;;;;10.44;100.00;99538.03;1774799;80;21007;-45
2022/11/10 08:37:53;;;;;;;27.30;16.07;;;;;;;10.46;100.00;99541.44;1757663;80;20972;-43
2022/11/10 08:40:22;;;;;;;30.10;17.07;;;;;;;10.45;100.00;99547.17;1771295;80;21469;-44
2022/11/10 08:43:06;;;;;;;26.57;16.25;;;;;;;10.49;100.00;99546.55;1778320;80;20959;-45
2022/11/10 08:45:31;;;;;;;34.50;16.48;;;;;;;10.56;100.00;99559.30;1770293;80;21444;-44
2022/11/10 08:47:58;;;;;;;31.68;16.55;;;;;;;10.62;100.00;99569.97;1768291;81;21046;-45
2022/11/10 08:50:25;;;;;;;;;;;;;;;10.61;100.00;99565.66;1768718;80;21465;-44
2022/11/10 08:52:51;;;;;;;32.63;16.77;;;;;;;10.61;100.00;99575.33;1756519;81;20417;-49
2022/11/10 08:55:18;;;;;;;28.55;16.12;;;;;;;10.61;100.00;99575.33;1785207;80;21390;-44
2022/11/10 08:57:45;;;;;;;24.55;14.43;;;;;;;10.66;100.00;99571.97;1774982;80;20964;-47
2022/11/10 09:00:16;;;;;;;28.50;16.32;;;;;;;10.68;100.00;99576.25;1748524;81;20959;-46
2022/11/10 09:02:41;;;;;;;33.80;16.75;;;;;;;10.74;100.00;99582.50;1767281;80;20960;-45
2022/11/10 09:05:08;;;;;;;31.48;16.42;;;;;;;10.82;100.00;99577.30;1776438;80;21461;-45
2022/11/10 09:07:45;;;;;;;29.60;16.33;;;;;;;10.88;100.00;99590.16;1773010;80;20936;-46
2022/11/10 09:10:15;;;;;;;28.55;15.28;;;;;;;10.87;100.00;99587.97;1769989;81;20983;-46
2022/11/10 09:12:41;;;;;;;29.70;14.18;;;;;;;10.88;100.00;99599.38;1771859;80;21381;-45
2022/11/10 09:15:09;;;;;;;29.25;16.20;;;;;;;10.88;100.00;99602.00;1772465;80;21052;-46
2022/11/10 09:17:35;;;;;;;;;;;;;;;10.90;100.00;99594.88;1774799;80;20944;-44
2022/11/10 09:20:01;;;;;;;28.32;13.95;;;;;;;10.91;100.00;99601.82;1770240;80;20100;-44
2022/11/10 09:22:27;;;;;;;27.65;13.88;;;;;;;10.89;100.00;99608.47;1773527;80;20994;-45
2022/11/10 09:24:52;;;;;;;24.15;14.43;;;;;;;10.97;100.00;99611.17;1773029;80;21008;-44
2022/11/10 09:27:18;;;;;;;27.20;14.75;;;;;;;11.03;99.90;99622.24;1779096;80;20959;-44
2022/11/10 09:29:44;;;;;;;27.70;14.43;;;;;;;11.09;100.00;99625.86;1767113;81;20940;-46
2022/11/10 09:32:10;;;;;;;23.00;14.05;;;;;;;11.11;100.00;99620.08;1771407;81;21023;-44
2022/11/10 09:34:36;;;;;;;27.32;15.83;;;;;;;11.18;99.66;99618.43;1771556;81;20988;-47
2022/11/10 09:37:01;;;;;;;25.02;14.70;;;;;;;11.24;99.38;99628.18;1771484;81;20936;-41
2022/11/10 09:39:27;;;;;;;25.23;14.40;;;;;;;11.26;98.88;99626.31;1771723;81;21485;-41
2022/11/10 09:41:53;;;;;;;23.75;14.20;;;;;;;11.27;98.98;99620.58;1771962;81;20972;-40
2022/11/10 09:44:41;;;;;;;26.35;13.45;;;;;;;11.22;98.50;99630.49;1766894;80;20936;-41
2022/11/10 09:47:19;;;;;;;27.02;14.35;;;;;;;11.24;98.51;99640.47;1759711;80;21011;-41
2022/11/10 09:49:55;;;;;;;27.05;14.58;;;;;;;11.23;98.67;99628.26;1762775;80;20985;-40
2022/11/10 09:52:25;;;;;;;21.15;13.13;;;;;;;11.23;98.86;99631.73;1777605;80;20967;-41
2022/11/10 09:55:20;;;;;;;28.65;14.07;;;;;;;11.27;98.33;99635.05;1777274;80;20958;-40
2022/11/10 09:57:48;;;;;;;26.75;14.45;;;;;;;11.21;98.66;99639.34;1788009;80;20981;-41
2022/11/10 10:00:17;;;;;;;28.70;14.55;;;;;;;11.18;98.75;99635.06;1768123;80;21033;-48
2022/11/10 10:03:04;;;;;;;22.58;14.20;;;;;;;11.16;98.74;99637.41;1781875;80;20991;-41
2022/11/10 10:05:57;;;;;;;25.50;14.38;;;;;;;11.18;98.76;99644.28;1770802;79;20944;-40
2022/11/10 10:08:34;;;;;;;32.33;14.98;;;;;;;11.18;98.86;99646.07;1760704;80;20995;-44
2022/11/10 10:11:28;;;;;;;25.82;14.70;;;;;;;11.16;99.43;99648.77;1771646;80;20953;-43
2022/11/10 10:14:05;;;;;;;29.42;15.32;;;;;;;11.21;99.39;99652.50;1769606;80;20963;-46
2022/11/10 10:16:39;;;;;;;24.87;14.80;;;;;;;11.22;99.47;99659.45;1771563;80;20955;-45
2022/11/10 10:19:27;;;;;;;26.87;14.58;;;;;;;11.25;98.75;99660.14;1777026;80;21448;-45
2022/11/10 10:22:19;;;;;;;23.90;13.48;;;;;;;11.23;98.98;99654.58;1761506;81;21148;-47
2022/11/10 10:24:45;;;;;;;22.55;13.50;;;;;;;11.31;99.03;99661.59;1757784;80;21429;-46
2022/11/10 10:27:16;;;;;;;22.87;13.60;;;;;;;11.37;98.71;99667.88;1777839;80;20971;-45
2022/11/10 10:29:46;;;;;;;24.52;14.07;;;;;;;11.42;98.25;99663.20;1774689;80;21008;-45
2022/11/10 10:32:13;;;;;;;23.38;14.15;;;;;;;11.40;98.04;99658.95;1763425;81;21410;-46
2022/11/10 10:34:41;;;;;;;23.20;13.62;;;;;;;11.41;98.50;99667.25;1777488;80;20948;-47
2022/11/10 10:37:35;;;;;;;;;;;;;;;11.43;98.18;99674.13;1765584;80;21450;-45
2022/11/10 10:40:00;;;;;;;25.08;13.43;;;;;;;11.40;98.02;99676.06;1766121;80;20411;-45
2022/11/10 10:42:34;;;;;;;25.62;12.33;;;;;;;11.44;97.72;99674.52;1771789;80;20987;-43
2022/11/10 10:45:25;;;;;;;27.37;12.90;;;;;;;11.44;97.65;99680.23;1775670;80;21504;-43
2022/11/10 10:47:55;;;;;;;21.35;12.35;;;;;;;11.47;97.33;99677.45;1766131;80;21018;-44
2022/11/10 10:50:27;;;;;;;23.32;12.85;;;;;;;11.48;97.26;99680.01;1758752;80;21469;-45
2022/11/10 10:53:18;;;;;;;20.17;12.05;;;;;;;11.51;97.21;99680.30;1768336;80;20940;-47
2022/11/10 10:55:58;;;;;;;26.52;12.75;;;;;;;11.42;96.61;99675.05;1763845;80;20971;-40
2022/11/10 10:58:35;;;;;;;23.80;12.78;;;;;;;11.42;96.23;99674.20;1762205;80;21001;-40
2022/11/10 11:01:15;;;;;;;19.25;11.80;;;;;;;11.50;96.48;99669.39;1761473;80;21030;-39
2022/11/10 11:03:45;;;;;;;20.05;11.53;;;;;;;11.56;96.33;99673.48;1744514;80;21022;-41
2022/11/10 11:06:19;;;;;;;22.07;11.75;;;;;;;11.63;95.94;99671.75;1772686;80;21476;-42
2022/11/10 11:09:18;;;;;;;19.35;11.43;;;;;;;11.67;95.09;99680.34;1769958;80;21380;-41
2022/11/10 11:11:49;;;;;;;24.20;11.63;;;;;;;11.71;95.39;99681.42;1760777;80;21899;-42
2022/11/10 11:14:20;;;;;;;17.80;11.73;;;;;;;11.72;94.94;99683.58;1763767;80;20995;-41
2022/11/10 11:16:53;;;;;;;17.80;10.50;;;;;;;11.76;94.86;99693.49;1767869;81;20980;-40
2022/11/10 11:19:24;;;;;;;21.50;11.22;;;;;;;11.68;94.73;99692.59;1771712;80;21480;-41
2022/11/10 11:22:01;;;;;;;14.18;10.70;;;;;;;11.72;94.53;99687.54;1746607;80;21063;-42
2022/11/10 11:24:38;;;;;;;17.35;9.50;;;;;;;11.74;94.50;99686.98;1777476;80;21014;-41
2022/11/10 11:27:19;;;;;;;15.30;10.03;;;;;;;11.81;94.49;99694.10;1782936;80;21015;-42
2022/11/10 11:30:14;;;;;;;18.90;10.72;;;;;;;11.73;94.11;99698.44;1768595;80;21027;-41
2022/11/10 11:33:20;;;;;;;20.05;11.43;;;;;;;11.70;93.99;99699.94;1766015;80;20963;-40
2022/11/10 11:36:14;;;;;;;17.85;10.40;;;;;;;11.79;94.03;99698.13;1774064;80;21496;-43
2022/11/10 11:38:45;;;;;;;19.87;12.10;;;;;;;11.84;93.79;99693.91;1753893;80;21011;-41
2022/11/10 11:41:29;;;;;;;18.73;10.88;;;;;;;11.96;93.60;99699.03;1744559;81;21063;-39